Time;durP1;ratioP1;P1;durP2;ratioP2;P2;SDS_P1;SDS_P2;PMS_P1;PMS_P2;Temp;Humidity;BMP_temperature;BMP_pressure;BME280_temperature;BME280_humidity;BME280_pressure;Samples;Min_cycle;Max_cycle;Signal;HPM_P1;HPM_P2
2023/09/30 00:02:05;;;;;;;0.20;0.20;;;;;;;13.96;94.35;100193.81;5107118;28;20054;-61
2023/09/30 00:04:30;;;;;;;0.30;0.30;;;;;;;13.97;94.42;100199.88;5089026;28;20111;-61
2023/09/30 00:06:55;;;;;;;0.30;0.30;;;;;;;13.99;94.06;100204.16;5107002;28;20076;-61
2023/09/30 00:09:21;;;;;;;0.70;0.70;;;;;;;14.00;94.21;100205.03;5106961;28;20027;-61
2023/09/30 00:11:47;;;;;;;0.20;0.20;;;;;;;14.03;94.55;100198.84;5089097;28;20035;-60
2023/09/30 00:14:12;;;;;;;0.20;0.20;;;;;;;14.03;94.22;100210.16;5106427;28;20099;-60
2023/09/30 00:16:38;;;;;;;1.73;1.63;;;;;;;13.99;94.06;100205.94;5106715;28;20027;-60
2023/09/30 00:19:03;;;;;;;0.20;0.20;;;;;;;14.04;93.59;100206.66;5106985;28;20034;-60
2023/09/30 00:21:29;;;;;;;0.20;0.20;;;;;;;14.02;93.87;100211.06;5106814;28;20069;-60
2023/09/30 00:23:54;;;;;;;0.57;0.57;;;;;;;14.08;93.97;100207.44;5106733;28;20035;-60
2023/09/30 00:26:22;;;;;;;0.20;0.20;;;;;;;14.07;94.09;100214.44;5106424;28;20027;-60
2023/09/30 00:28:47;;;;;;;0.20;0.20;;;;;;;14.06;93.84;100210.09;5106699;28;20020;-59
2023/09/30 00:31:12;;;;;;;3.72;3.03;;;;;;;14.05;93.13;100211.00;5106475;28;20034;-59
2023/09/30 00:33:38;;;;;;;0.20;0.20;;;;;;;14.03;93.08;100220.59;5106547;28;20051;-60
2023/09/30 00:36:08;;;;;;;0.20;0.20;;;;;;;14.05;92.49;100221.44;5106222;28;20172;-59
2023/09/30 00:38:33;;;;;;;4.78;3.35;;;;;;;14.07;92.95;100224.00;5106228;28;20023;-60
2023/09/30 00:40:59;;;;;;;0.20;0.20;;;;;;;14.07;92.81;100226.63;5106234;28;20016;-60
2023/09/30 00:43:24;;;;;;;0.20;0.20;;;;;;;14.02;92.57;100215.44;5106347;28;20464;-59
2023/09/30 00:46:13;;;;;;;0.20;0.20;;;;;;;14.00;92.01;100212.84;5106370;28;20020;-60
2023/09/30 00:48:39;;;;;;;0.45;0.45;;;;;;;13.99;92.35;100222.44;5106400;28;20095;-60
2023/09/30 00:51:04;;;;;;;0.30;0.30;;;;;;;13.97;92.38;100216.41;5106228;28;20090;-59
2023/09/30 00:53:30;;;;;;;0.20;0.20;;;;;;;13.92;92.64;100214.81;5105995;28;20069;-59
2023/09/30 00:55:57;;;;;;;0.30;0.30;;;;;;;13.91;91.94;100216.56;5106095;28;20020;-60
2023/09/30 00:58:27;;;;;;;0.30;0.30;;;;;;;13.87;91.09;100226.22;5106327;28;20030;-60
2023/09/30 01:00:53;;;;;;;0.40;0.40;;;;;;;13.86;91.49;100219.31;5106089;28;20096;-59
2023/09/30 01:03:19;;;;;;;0.20;0.20;;;;;;;13.85;91.46;100212.34;5105793;28;20109;-59
2023/09/30 01:05:45;;;;;;;0.20;0.20;;;;;;;13.91;92.08;100220.94;5105872;28;20024;-60
2023/09/30 01:08:10;;;;;;;0.20;0.20;;;;;;;13.88;92.33;100219.25;5105999;28;20380;-59
2023/09/30 01:10:36;;;;;;;0.77;0.77;;;;;;;13.84;92.38;100215.88;5105588;28;20460;-59
2023/09/30 01:13:01;;;;;;;0.20;0.20;;;;;;;13.84;91.68;100217.59;5105995;28;20020;-60
2023/09/30 01:15:29;;;;;;;0.20;0.20;;;;;;;13.86;91.52;100216.69;5105707;28;20030;-60
2023/09/30 01:17:54;;;;;;;0.40;0.40;;;;;;;13.87;91.84;100215.78;5105744;28;20091;-60
2023/09/30 01:20:22;;;;;;;0.20;0.20;;;;;;;13.93;91.50;100216.53;5105548;28;20020;-60
2023/09/30 01:22:47;;;;;;;0.45;0.45;;;;;;;13.93;91.05;100222.59;5105712;28;20032;-60
2023/09/30 01:25:13;;;;;;;0.30;0.30;;;;;;;13.94;91.36;100226.06;5104784;28;20387;-60
2023/09/30 01:27:38;;;;;;;0.30;0.30;;;;;;;13.92;91.33;100220.88;5105645;28;20051;-60
2023/09/30 01:30:04;;;;;;;0.28;0.28;;;;;;;13.91;90.45;100221.78;5105859;28;20024;-60
2023/09/30 01:32:29;;;;;;;0.75;0.75;;;;;;;13.88;90.41;100221.88;5105076;28;20039;-59
2023/09/30 01:34:55;;;;;;;0.20;0.20;;;;;;;13.87;90.79;100215.78;5105228;28;20024;-60
2023/09/30 01:37:20;;;;;;;0.20;0.20;;;;;;;13.91;90.84;100220.94;5105514;28;20034;-60
2023/09/30 01:39:46;;;;;;;0.20;0.20;;;;;;;13.85;90.63;100219.34;5105593;28;20035;-60
2023/09/30 01:42:11;;;;;;;1.38;1.38;;;;;;;13.84;90.36;100215.88;5104707;28;20389;-59
2023/09/30 01:44:37;;;;;;;0.20;0.20;;;;;;;13.85;90.46;100212.34;5105055;28;20028;-59
2023/09/30 01:47:03;;;;;;;0.30;0.30;;;;;;;13.85;90.65;100214.97;5105130;28;20048;-60
2023/09/30 01:49:29;;;;;;;0.60;0.60;;;;;;;13.83;91.01;100208.94;5105212;28;20023;-60
2023/09/30 01:51:54;;;;;;;0.28;0.28;;;;;;;13.78;90.87;100205.59;5105396;28;20031;-60
2023/09/30 01:54:19;;;;;;;5.88;0.95;;;;;;;13.77;90.58;100222.13;5105104;28;20045;-59
2023/09/30 01:56:45;;;;;;;0.25;0.25;;;;;;;13.64;90.39;100195.50;5096976;28;20077;-60
2023/09/30 01:59:10;;;;;;;0.22;0.22;;;;;;;13.73;90.20;100218.75;5105222;28;20051;-59
2023/09/30 02:01:35;;;;;;;0.30;0.30;;;;;;;13.68;90.67;100204.09;5104708;28;20031;-59
2023/09/30 02:04:01;;;;;;;3.60;1.65;;;;;;;13.67;90.56;100213.69;5105082;28;20020;-60
2023/09/30 02:06:26;;;;;;;0.20;0.20;;;;;;;13.53;90.72;100208.78;5105079;28;20045;-60
2023/09/30 02:08:52;;;;;;;0.20;0.20;;;;;;;13.54;90.74;100218.34;5105267;28;20051;-58
2023/09/30 02:11:17;;;;;;;0.47;0.47;;;;;;;13.55;91.11;100224.38;5105287;28;20103;-61
2023/09/30 02:13:44;;;;;;;0.30;0.30;;;;;;;13.54;90.80;100223.56;5104782;28;20532;-58
2023/09/30 02:16:15;;;;;;;0.47;0.47;;;;;;;13.50;91.21;100233.19;5104791;28;20020;-60
2023/09/30 02:18:44;;;;;;;0.30;0.30;;;;;;;13.49;91.21;100225.38;5104874;28;20047;-60
2023/09/30 02:21:10;;;;;;;0.20;0.20;;;;;;;13.51;91.21;100234.06;5087114;28;20110;-60
2023/09/30 02:23:35;;;;;;;0.82;0.82;;;;;;;13.49;91.38;100246.22;5104678;28;20066;-61
2023/09/30 02:26:02;;;;;;;0.30;0.30;;;;;;;13.52;91.86;100238.38;5104854;28;20073;-60
2023/09/30 02:28:28;;;;;;;0.25;0.25;;;;;;;13.51;92.09;100244.50;5104859;28;20020;-59
2023/09/30 02:30:53;;;;;;;0.20;0.20;;;;;;;13.49;91.73;100239.28;5104906;28;20116;-59
2023/09/30 02:33:19;;;;;;;3.35;3.03;;;;;;;13.48;92.18;100247.97;5104706;28;20027;-60
2023/09/30 02:35:45;;;;;;;0.20;0.20;;;;;;;13.48;92.16;100260.19;5105471;28;20035;-60
2023/09/30 02:38:11;;;;;;;0.30;0.30;;;;;;;13.47;92.31;100254.09;5108813;28;20020;-59
2023/09/30 02:40:38;;;;;;;0.20;0.20;;;;;;;13.46;92.34;100265.44;5108765;28;20391;-60
2023/09/30 02:43:04;;;;;;;0.20;0.20;;;;;;;13.46;92.48;100261.94;5108459;28;20066;-60
2023/09/30 02:45:29;;;;;;;3.75;3.40;;;;;;;13.45;92.56;100244.59;5108431;28;20036;-59
2023/09/30 02:47:55;;;;;;;4.78;1.50;;;;;;;13.44;92.58;100248.09;5108325;28;20054;-60
2023/09/30 02:50:21;;;;;;;1.45;1.38;;;;;;;13.50;92.78;100242.72;5108482;28;20100;-60
2023/09/30 02:52:46;;;;;;;0.20;0.20;;;;;;;13.55;92.88;100248.72;5108522;28;20020;-59
2023/09/30 02:55:12;;;;;;;0.95;0.73;;;;;;;13.55;93.00;100251.34;5108097;28;20024;-58
2023/09/30 02:57:38;;;;;;;0.30;0.30;;;;;;;13.58;92.98;100250.41;5108175;28;20028;-60
2023/09/30 03:00:23;;;;;;;1.05;1.00;;;;;;;13.60;93.08;100244.28;5108321;28;20448;-58
2023/09/30 03:02:57;;;;;;;0.20;0.20;;;;;;;13.65;93.07;100248.50;5107992;28;20027;-59
2023/09/30 03:05:23;;;;;;;0.20;0.20;;;;;;;13.71;92.71;100243.13;5108066;28;20073;-60
2023/09/30 03:07:50;;;;;;;0.20;0.20;;;;;;;13.72;92.89;100244.88;5108250;28;20028;-60
2023/09/30 03:10:20;;;;;;;0.30;0.30;;;;;;;13.74;92.88;100253.50;5108082;28;20035;-60
2023/09/30 03:12:55;;;;;;;0.30;0.30;;;;;;;13.78;92.97;100249.06;5107895;28;20032;-59
2023/09/30 03:15:20;;;;;;;24.48;1.77;;;;;;;13.83;92.63;100250.69;5108090;28;20031;-59
2023/09/30 03:17:46;;;;;;;0.30;0.30;;;;;;;13.89;92.19;100244.44;5107656;28;20020;-60
2023/09/30 03:20:12;;;;;;;0.30;0.30;;;;;;;13.90;92.02;100250.53;5107799;28;20062;-59
2023/09/30 03:22:42;;;;;;;0.20;0.20;;;;;;;13.90;91.21;100251.38;5108116;28;20024;-59
2023/09/30 03:25:09;;;;;;;0.40;0.40;;;;;;;13.91;91.50;100247.88;5089385;28;20027;-61
2023/09/30 03:27:36;;;;;;;0.30;0.30;;;;;;;13.94;91.17;100244.34;5107895;28;20024;-59
2023/09/30 03:30:03;;;;;;;0.20;0.20;;;;;;;13.92;91.35;100241.75;5107950;28;20028;-60
2023/09/30 03:32:29;;;;;;;0.20;0.20;;;;;;;13.91;91.73;100247.88;5107539;28;20050;-59
2023/09/30 03:34:58;;;;;;;0.20;0.20;;;;;;;13.96;91.94;100232.13;5107678;28;20024;-60
2023/09/30 03:37:26;;;;;;;0.30;0.30;;;;;;;13.90;91.33;100229.66;5107802;28;20107;-60
2023/09/30 03:39:53;;;;;;;0.20;0.20;;;;;;;14.02;91.15;100236.31;5107633;28;20051;-60
2023/09/30 03:42:18;;;;;;;0.30;0.30;;;;;;;14.04;90.94;100237.97;5107295;28;20068;-60
2023/09/30 03:44:43;;;;;;;4.63;2.60;;;;;;;14.08;91.08;100237.00;5107584;28;20093;-60
2023/09/30 03:47:09;;;;;;;0.22;0.22;;;;;;;14.06;90.87;100237.94;5106850;28;20028;-60
2023/09/30 03:49:34;;;;;;;0.30;0.30;;;;;;;14.03;90.52;100241.50;5088903;28;20095;-60
2023/09/30 03:52:01;;;;;;;0.20;0.20;;;;;;;14.03;90.84;100246.72;5107339;28;20016;-60
2023/09/30 03:54:26;;;;;;;0.20;0.20;;;;;;;13.98;90.84;100239.00;5107289;28;20047;-59
2023/09/30 03:56:52;;;;;;;0.30;0.30;;;;;;;13.93;91.24;100234.81;5107261;28;20377;-60
2023/09/30 03:59:18;;;;;;;0.20;0.20;;;;;;;13.87;91.41;100233.19;5107454;28;20045;-59
2023/09/30 04:01:44;;;;;;;3.20;2.38;;;;;;;13.84;91.39;100231.53;5107140;28;20027;-60
2023/09/30 04:04:09;;;;;;;4.68;2.58;;;;;;;13.80;90.96;100235.09;5106931;28;20041;-59
2023/09/30 04:06:38;;;;;;;0.20;0.20;;;;;;;13.78;91.18;100234.28;5107155;28;20321;-60
2023/09/30 04:09:06;;;;;;;1.85;1.55;;;;;;;13.73;91.18;100234.41;5106865;28;20027;-60
2023/09/30 04:11:33;;;;;;;0.28;0.28;;;;;;;13.66;91.03;100222.38;5107082;28;20083;-60
2023/09/30 04:13:58;;;;;;;0.22;0.22;;;;;;;13.69;91.32;100234.50;5106822;28;20016;-59
2023/09/30 04:16:28;;;;;;;0.30;0.30;;;;;;;13.66;91.20;100227.59;5106731;28;20089;-60
2023/09/30 04:18:54;;;;;;;0.30;0.30;;;;;;;13.65;91.48;100236.34;5107102;28;20083;-59
2023/09/30 04:21:19;;;;;;;1.13;1.13;;;;;;;13.62;91.08;100234.66;5106793;28;20116;-60
2023/09/30 04:23:46;;;;;;;0.20;0.20;;;;;;;13.61;91.72;100230.31;5106603;28;20031;-60
2023/09/30 04:26:11;;;;;;;2.05;1.95;;;;;;;13.61;91.83;100225.09;5106570;28;20024;-58
2023/09/30 04:28:37;;;;;;;0.57;0.55;;;;;;;13.57;91.77;100206.97;5106605;28;20058;-60
2023/09/30 04:31:03;;;;;;;0.20;0.20;;;;;;;13.75;91.86;100223.94;5106655;28;20070;-59
2023/09/30 04:33:28;;;;;;;0.30;0.30;;;;;;;13.77;91.55;100229.94;5106319;28;20097;-59
2023/09/30 04:35:53;;;;;;;0.55;0.55;;;;;;;13.73;91.55;100223.97;5106524;28;20344;-60
2023/09/30 04:38:19;;;;;;;0.20;0.20;;;;;;;13.78;90.73;100230.81;5106433;28;20054;-60
2023/09/30 04:40:48;;;;;;;0.20;0.20;;;;;;;13.79;90.82;100232.50;5106416;28;20071;-59
2023/09/30 04:43:14;;;;;;;0.20;0.20;;;;;;;13.81;90.75;100226.38;5106298;28;20376;-60
2023/09/30 04:45:39;;;;;;;21.60;4.95;;;;;;;13.73;91.00;100221.34;5106238;28;20070;-61
2023/09/30 04:48:05;;;;;;;0.40;0.40;;;;;;;13.79;90.97;100220.34;5106277;28;20032;-59
2023/09/30 04:50:30;;;;;;;0.20;0.20;;;;;;;13.82;90.76;100227.22;5106485;28;20020;-61
2023/09/30 04:52:57;;;;;;;0.30;0.30;;;;;;;13.82;90.89;100225.47;5106155;28;20046;-61
2023/09/30 04:55:23;;;;;;;0.20;0.20;;;;;;;13.83;91.16;100221.13;5106115;28;20024;-59
2023/09/30 04:57:50;;;;;;;0.30;0.30;;;;;;;13.88;91.27;100229.69;5106055;28;20016;-59
2023/09/30 05:00:17;;;;;;;0.30;0.30;;;;;;;13.92;91.05;100235.69;5086792;28;20050;-60
2023/09/30 05:02:44;;;;;;;0.30;0.30;;;;;;;13.95;91.15;100240.81;5105832;28;20024;-60
2023/09/30 05:05:10;;;;;;;0.20;0.20;;;;;;;13.95;90.38;100239.06;5105856;28;20035;-60
2023/09/30 05:07:36;;;;;;;0.95;0.95;;;;;;;13.88;90.13;100235.75;5106109;28;20028;-60
2023/09/30 05:10:05;;;;;;;0.40;0.40;;;;;;;13.87;89.75;100230.56;5105861;28;20024;-60
2023/09/30 05:12:30;;;;;;;0.20;0.20;;;;;;;13.81;89.30;100231.59;5105817;28;20023;-60
2023/09/30 05:14:56;;;;;;;0.20;0.20;;;;;;;13.78;89.20;100241.25;5105781;28;20024;-60
2023/09/30 05:17:21;;;;;;;1.20;1.20;;;;;;;13.80;88.85;100239.47;5105746;28;20020;-60
2023/09/30 05:19:48;;;;;;;0.55;0.55;;;;;;;13.82;88.39;100251.56;5105767;28;20031;-60
2023/09/30 05:22:13;;;;;;;0.20;0.20;;;;;;;13.84;88.80;100246.31;5087535;28;20024;-60
2023/09/30 05:24:38;;;;;;;0.30;0.30;;;;;;;13.90;88.73;100240.09;5105630;28;20024;-61
2023/09/30 05:27:04;;;;;;;0.40;0.40;;;;;;;13.98;89.12;100244.22;5105602;28;20031;-60
2023/09/30 05:29:29;;;;;;;1.08;0.70;;;;;;;13.93;88.39;100255.69;5105487;28;20035;-61
2023/09/30 05:31:56;;;;;;;0.30;0.30;;;;;;;13.88;88.38;100255.78;5105541;28;20016;-61
2023/09/30 05:34:21;;;;;;;0.20;0.20;;;;;;;13.63;89.17;100252.03;5105798;28;20024;-62
2023/09/30 05:36:46;;;;;;;1.05;1.00;;;;;;;13.52;89.20;100254.03;5105459;28;20031;-61
2023/09/30 05:39:12;;;;;;;0.30;0.30;;;;;;;13.37;90.07;100256.03;5105582;28;20032;-61
2023/09/30 05:41:38;;;;;;;0.20;0.20;;;;;;;13.29;90.65;100257.97;5105268;28;20056;-61
2023/09/30 05:44:04;;;;;;;0.28;0.28;;;;;;;13.21;91.64;100244.25;5105540;28;20020;-61
2023/09/30 05:46:30;;;;;;;0.30;0.30;;;;;;;13.18;92.22;100247.78;5105283;28;20028;-61
2023/09/30 05:48:56;;;;;;;0.25;0.25;;;;;;;13.10;92.23;100237.53;5105419;28;20020;-61
2023/09/30 05:51:21;;;;;;;0.30;0.30;;;;;;;13.10;92.86;100257.53;5105249;28;20027;-61
2023/09/30 05:53:50;;;;;;;4.72;2.38;;;;;;;13.07;93.05;100248.00;5105124;28;20020;-60
2023/09/30 05:56:15;;;;;;;0.25;0.25;;;;;;;13.05;93.33;100238.53;5105236;28;20030;-60
2023/09/30 05:58:42;;;;;;;0.20;0.20;;;;;;;13.05;93.60;100268.03;5105317;28;20024;-60
2023/09/30 06:01:12;;;;;;;0.20;0.20;;;;;;;13.01;94.00;100271.59;5105060;28;20495;-61
2023/09/30 06:03:39;;;;;;;0.30;0.30;;;;;;;12.95;94.42;100258.69;5104651;28;20038;-60
2023/09/30 06:06:15;;;;;;;0.30;0.30;;;;;;;12.90;94.14;100256.19;5105029;28;20095;-61
2023/09/30 06:08:45;;;;;;;0.20;0.20;;;;;;;12.94;94.60;100264.81;5105229;28;20046;-61
2023/09/30 06:11:30;;;;;;;0.20;0.20;;;;;;;13.00;94.63;100267.28;5106530;28;20027;-60
2023/09/30 06:13:59;;;;;;;0.40;0.40;;;;;;;13.16;95.25;100274.78;5091052;28;20020;-62
2023/09/30 06:16:26;;;;;;;0.20;0.20;;;;;;;13.33;94.39;100272.66;5109116;28;20096;-60
2023/09/30 06:18:52;;;;;;;0.20;0.20;;;;;;;13.55;93.99;100272.19;5109047;28;20024;-61
2023/09/30 06:21:20;;;;;;;0.28;0.28;;;;;;;13.75;93.71;100257.84;5109362;28;20023;-60
2023/09/30 06:23:47;;;;;;;1.17;1.10;;;;;;;13.89;93.48;100265.34;5100867;28;20035;-60
2023/09/30 06:26:13;;;;;;;1.20;1.10;;;;;;;14.07;91.17;100278.81;5109137;28;20035;-60
2023/09/30 06:28:40;;;;;;;0.20;0.20;;;;;;;14.36;91.04;100279.84;5108891;28;20024;-60
2023/09/30 06:31:08;;;;;;;0.65;0.65;;;;;;;14.68;89.75;100285.91;5108934;28;20074;-61
2023/09/30 06:33:35;;;;;;;0.20;0.20;;;;;;;14.97;87.13;100299.97;5108641;28;20081;-61
2023/09/30 06:36:02;;;;;;;0.20;0.20;;;;;;;15.18;84.66;100295.00;5108664;28;20020;-61
2023/09/30 06:38:27;;;;;;;0.50;0.50;;;;;;;15.18;82.73;100284.56;5108750;28;20023;-60
2023/09/30 06:40:53;;;;;;;18.08;3.08;;;;;;;15.02;81.93;100289.38;5108480;28;20042;-60
2023/09/30 06:43:19;;;;;;;0.20;0.20;;;;;;;15.14;82.79;100284.69;5090350;28;20024;-60
2023/09/30 06:45:46;;;;;;;0.70;0.70;;;;;;;15.31;80.55;100287.66;5108470;28;20062;-60
2023/09/30 06:48:12;;;;;;;0.82;0.82;;;;;;;15.70;82.26;100283.00;5108332;28;20106;-60
2023/09/30 06:50:48;;;;;;;0.20;0.20;;;;;;;15.94;81.53;100296.22;5108638;28;20027;-60
2023/09/30 06:53:18;;;;;;;0.20;0.20;;;;;;;15.79;80.31;100308.00;5108649;28;20475;-61
2023/09/30 06:55:44;;;;;;;0.20;0.20;;;;;;;15.48;78.81;100296.75;5108304;28;20031;-64
2023/09/30 06:58:10;;;;;;;0.20;0.20;;;;;;;15.18;78.44;100315.06;5108590;28;20030;-63
2023/09/30 07:00:41;;;;;;;0.20;0.20;;;;;;;14.74;79.65;100324.94;5108267;28;20043;-64
2023/09/30 07:03:09;;;;;;;0.20;0.20;;;;;;;14.40;81.03;100311.94;5108105;28;20094;-62
2023/09/30 07:05:35;;;;;;;0.20;0.20;;;;;;;14.09;82.27;100324.03;5108282;28;20015;-61
2023/09/30 07:08:01;;;;;;;0.20;0.20;;;;;;;13.90;84.36;100314.00;5108503;28;20024;-61
2023/09/30 07:10:26;;;;;;;0.20;0.20;;;;;;;13.77;84.91;100318.66;5108304;28;20077;-60
2023/09/30 07:12:51;;;;;;;0.30;0.30;;;;;;;13.70;85.57;100335.34;5108406;28;20046;-60
2023/09/30 07:15:17;;;;;;;0.20;0.20;;;;;;;13.66;86.53;100328.50;5108162;28;20024;-60
2023/09/30 07:17:43;;;;;;;0.20;0.20;;;;;;;13.61;86.64;100331.22;5108045;28;20020;-61
2023/09/30 07:20:09;;;;;;;0.20;0.20;;;;;;;13.52;87.15;100324.44;5108278;28;20030;-60
2023/09/30 07:22:35;;;;;;;0.20;0.20;;;;;;;13.30;87.58;100319.66;5107019;28;20031;-60
2023/09/30 07:25:01;;;;;;;0.20;0.20;;;;;;;13.12;88.21;100329.56;5107979;28;20027;-63
2023/09/30 07:27:26;;;;;;;0.30;0.30;;;;;;;13.04;89.40;100339.28;5089821;28;20127;-61
2023/09/30 07:29:51;;;;;;;0.20;0.20;;;;;;;13.07;90.16;100343.56;5107987;28;20025;-63
2023/09/30 07:32:17;;;;;;;0.20;0.20;;;;;;;13.51;92.40;100341.81;5107891;28;20479;-63
2023/09/30 07:34:42;;;;;;;0.20;0.20;;;;;;;14.19;92.85;100329.84;5107901;28;20024;-62
2023/09/30 07:37:09;;;;;;;0.20;0.20;;;;;;;14.40;88.14;100346.75;5107781;28;20061;-61
2023/09/30 07:39:35;;;;;;;0.20;0.20;;;;;;;14.55;86.91;100342.91;5107581;28;20020;-61
2023/09/30 07:42:00;;;;;;;0.20;0.20;;;;;;;14.75;84.39;100355.44;5107431;28;20056;-62
2023/09/30 07:44:26;;;;;;;0.20;0.20;;;;;;;15.21;85.86;100357.69;5089317;28;20357;-60
2023/09/30 07:46:51;;;;;;;6.43;1.75;;;;;;;15.53;81.93;100357.63;5107467;28;20024;-61
2023/09/30 07:49:17;;;;;;;0.20;0.20;;;;;;;15.84;82.11;100353.22;5107548;28;20020;-62
2023/09/30 07:51:42;;;;;;;0.52;0.52;;;;;;;16.26;81.81;100351.94;5107422;28;20027;-61
2023/09/30 07:54:08;;;;;;;0.20;0.20;;;;;;;16.45;77.19;100346.91;5107360;28;20517;-62
2023/09/30 07:56:34;;;;;;;2.28;1.05;;;;;;;16.64;75.60;100342.81;5089152;28;20023;-62
2023/09/30 07:58:59;;;;;;;2.90;0.95;;;;;;;16.68;74.82;100350.50;5089189;28;20088;-62
2023/09/30 08:01:24;;;;;;;7.95;1.58;;;;;;;16.69;74.25;100343.50;5107486;28;20035;-61
2023/09/30 08:03:50;;;;;;;2.40;0.82;;;;;;;16.75;72.70;100343.28;5107198;28;20491;-61
2023/09/30 08:06:15;;;;;;;3.40;1.25;;;;;;;16.82;72.49;100339.53;5107096;28;20028;-59
2023/09/30 08:08:40;;;;;;;9.10;1.45;;;;;;;16.84;71.13;100334.22;5107195;28;20035;-61
2023/09/30 08:11:06;;;;;;;4.78;1.40;;;;;;;16.77;72.40;100319.66;5106836;28;20020;-60
2023/09/30 08:13:32;;;;;;;0.55;0.45;;;;;;;16.58;71.11;100347.34;5106881;28;20024;-60
2023/09/30 08:16:01;;;;;;;11.38;1.58;;;;;;;16.42;71.71;100354.03;5106790;28;20020;-60
2023/09/30 08:18:26;;;;;;;11.52;1.48;;;;;;;16.59;73.88;100332.50;5088930;28;20019;-60
2023/09/30 08:20:52;;;;;;;6.53;1.92;;;;;;;17.18;72.02;100342.66;5106932;28;20024;-61
2023/09/30 08:23:17;;;;;;;4.60;1.75;;;;;;;17.61;71.09;100341.94;5106765;28;20090;-60
2023/09/30 08:25:43;;;;;;;4.18;1.65;;;;;;;18.03;69.33;100337.66;5106657;28;20036;-60
2023/09/30 08:28:09;;;;;;;14.07;1.73;;;;;;;18.15;67.80;100352.94;5106602;28;20027;-60
2023/09/30 08:30:36;;;;;;;5.93;1.73;;;;;;;18.27;67.86;100350.75;5106724;28;20051;-60
2023/09/30 08:33:03;;;;;;;8.35;1.52;;;;;;;18.44;67.74;100355.28;5106308;28;20017;-59
2023/09/30 08:35:29;;;;;;;6.65;1.20;;;;;;;18.53;67.31;100360.13;5106113;28;20020;-60
2023/09/30 08:37:55;;;;;;;2.83;1.05;;;;;;;18.54;65.27;100356.63;5106737;28;20032;-60
2023/09/30 08:40:21;;;;;;;7.57;1.63;;;;;;;18.41;67.02;100361.53;5106463;28;20511;-60
2023/09/30 08:42:52;;;;;;;5.82;1.77;;;;;;;18.68;65.91;100361.28;5105998;28;20123;-59
2023/09/30 08:45:18;;;;;;;3.67;1.10;;;;;;;19.17;66.94;100359.19;5106035;28;20031;-59
2023/09/30 08:47:44;;;;;;;7.10;1.40;;;;;;;19.60;65.70;100372.13;5106227;28;20024;-59
2023/09/30 08:50:10;;;;;;;4.07;1.10;;;;;;;19.64;62.65;100376.34;5106520;28;20058;-61
2023/09/30 08:52:38;;;;;;;2.35;1.17;;;;;;;19.82;63.84;100386.94;5106437;28;20334;-60
2023/09/30 08:55:03;;;;;;;8.98;1.33;;;;;;;19.80;62.98;100389.63;5106264;28;20016;-59
2023/09/30 08:57:29;;;;;;;3.05;0.88;;;;;;;19.77;60.98;100396.81;5106256;28;20038;-61
2023/09/30 08:59:55;;;;;;;1.17;0.75;;;;;;;19.87;61.24;100394.63;5106164;28;20024;-64
2023/09/30 09:02:21;;;;;;;4.88;1.48;;;;;;;20.29;60.61;100408.41;5105902;28;20092;-63
2023/09/30 09:04:46;;;;;;;2.83;1.02;;;;;;;20.30;60.84;100396.97;5106218;28;20050;-63
2023/09/30 09:07:12;;;;;;;4.82;1.70;;;;;;;20.72;60.54;100397.50;5106029;28;20022;-63
2023/09/30 09:09:37;;;;;;;6.47;2.03;;;;;;;20.57;58.93;100396.50;5105986;28;20024;-63
2023/09/30 09:12:03;;;;;;;2.80;0.60;;;;;;;20.09;58.95;100389.19;5087888;28;20024;-63
2023/09/30 09:14:39;;;;;;;6.85;0.98;;;;;;;19.52;57.70;100396.19;5105930;28;20098;-61
2023/09/30 09:17:07;;;;;;;4.10;1.13;;;;;;;18.97;59.39;100381.09;5105922;28;20028;-61
2023/09/30 09:19:34;;;;;;;3.72;1.33;;;;;;;18.59;60.52;100409.00;5087584;28;20041;-62
2023/09/30 09:22:00;;;;;;;2.80;0.90;;;;;;;18.70;61.99;100406.78;5105640;28;20024;-62
2023/09/30 09:24:31;;;;;;;0.80;0.47;;;;;;;18.96;60.46;100401.31;5105491;28;20032;-61
2023/09/30 09:27:11;;;;;;;3.60;1.15;;;;;;;19.12;62.00;100398.03;5105702;28;20095;-63
2023/09/30 09:29:37;;;;;;;2.95;1.17;;;;;;;19.38;61.83;100395.97;5105561;28;20016;-63
2023/09/30 09:32:13;;;;;;;10.50;1.65;;;;;;;19.05;61.96;100413.19;5105447;28;20028;-63
2023/09/30 09:34:40;;;;;;;2.50;1.10;;;;;;;18.68;61.65;100386.69;5105676;28;20023;-62
2023/09/30 09:37:19;;;;;;;2.20;0.63;;;;;;;18.60;62.35;100391.41;5105627;28;20024;-62
2023/09/30 09:39:52;;;;;;;3.85;1.50;;;;;;;18.51;62.63;100406.69;5071082;28;20034;-63
2023/09/30 09:42:31;;;;;;;5.35;1.45;;;;;;;19.11;63.14;100409.44;5105087;28;20044;-62
2023/09/30 09:44:59;;;;;;;4.18;1.67;;;;;;;19.84;62.05;100427.19;5105244;28;20048;-63
2023/09/30 09:47:25;;;;;;;3.17;1.35;;;;;;;19.92;62.95;100421.59;5104826;28;20020;-62
2023/09/30 09:49:52;;;;;;;6.80;1.75;;;;;;;20.01;61.26;100421.16;5105200;28;20395;-61
2023/09/30 09:52:19;;;;;;;2.88;1.13;;;;;;;20.45;60.78;100413.78;5105099;28;20472;-62
2023/09/30 09:54:48;;;;;;;5.57;1.48;;;;;;;20.51;61.89;100431.94;5105450;28;20027;-63
2023/09/30 09:57:15;;;;;;;2.92;1.25;;;;;;;20.14;60.24;100423.22;5105223;28;20024;-62
2023/09/30 09:59:45;;;;;;;8.30;2.05;;;;;;;19.63;59.77;100429.09;5105211;28;20031;-62
2023/09/30 10:02:20;;;;;;;4.13;1.15;;;;;;;19.10;61.27;100426.16;5105029;28;20028;-63
2023/09/30 10:04:46;;;;;;;4.75;1.13;;;;;;;18.84;62.46;100434.22;5104891;28;20052;-63
2023/09/30 10:07:19;;;;;;;4.75;1.55;;;;;;;18.60;63.89;100425.59;5105450;28;20071;-62
2023/09/30 10:09:49;;;;;;;3.63;1.60;;;;;;;18.21;63.15;100428.06;5105047;28;20089;-62
2023/09/30 10:12:15;;;;;;;4.88;1.27;;;;;;;17.94;63.91;100436.06;5105196;28;20024;-61
2023/09/30 10:14:41;;;;;;;7.18;1.85;;;;;;;17.65;64.63;100445.94;5105170;28;20028;-63
2023/09/30 10:17:09;;;;;;;4.70;1.65;;;;;;;17.46;65.38;100434.31;5104952;28;21085;-62
2023/09/30 10:19:35;;;;;;;6.18;1.95;;;;;;;18.08;67.11;100451.28;5105015;28;20016;-61
2023/09/30 10:22:19;;;;;;;6.85;2.22;;;;;;;19.47;63.65;100436.81;5105181;28;20102;-61
2023/09/30 10:24:49;;;;;;;10.05;0.98;;;;;;;19.73;59.52;100438.25;5105008;28;20399;-61
2023/09/30 10:27:37;;;;;;;2.78;0.95;;;;;;;19.35;58.80;100448.75;5105335;28;20024;-62
2023/09/30 10:30:13;;;;;;;1.77;0.75;;;;;;;19.28;59.31;100442.94;5105057;28;20103;-62
2023/09/30 10:32:50;;;;;;;5.30;1.33;;;;;;;19.02;59.67;100452.78;5104737;28;20024;-63
2023/09/30 10:35:36;;;;;;;3.85;1.25;;;;;;;19.12;60.08;100464.63;5086511;28;20031;-62
2023/09/30 10:38:24;;;;;;;3.25;1.67;;;;;;;18.93;60.48;100465.41;5090292;28;20032;-61
2023/09/30 10:40:52;;;;;;;3.75;1.33;;;;;;;18.46;60.31;100445.44;5104694;28;20028;-63
2023/09/30 10:43:31;;;;;;;10.88;1.63;;;;;;;18.04;61.48;100461.06;5104679;28;20047;-61
2023/09/30 10:45:56;;;;;;;3.05;1.27;;;;;;;18.21;62.26;100449.91;5104436;28;20078;-62
2023/09/30 10:48:24;;;;;;;5.72;2.78;;;;;;;18.11;61.23;100456.44;5104498;28;20024;-62
2023/09/30 10:50:56;;;;;;;23.08;2.05;;;;;;;17.89;61.80;100456.41;5086522;28;20031;-60
2023/09/30 10:53:22;;;;;;;4.70;1.63;;;;;;;17.73;63.27;100469.25;5104963;28;20017;-61
2023/09/30 10:55:55;;;;;;;3.72;1.17;;;;;;;17.77;63.98;100463.84;5104557;28;20031;-61
2023/09/30 10:58:20;;;;;;;5.10;1.90;;;;;;;18.28;63.31;100463.66;5107542;28;20028;-60
2023/09/30 11:00:55;;;;;;;4.47;1.58;;;;;;;18.46;62.26;100471.72;5108524;28;20028;-61
2023/09/30 11:03:22;;;;;;;13.25;2.00;;;;;;;18.62;61.54;100466.69;5108351;28;20047;-62
2023/09/30 11:05:48;;;;;;;7.78;2.10;;;;;;;18.76;62.01;100471.38;5107985;28;20130;-62
2023/09/30 11:08:19;;;;;;;4.85;1.63;;;;;;;19.16;62.43;100463.59;5108400;28;20028;-60
2023/09/30 11:10:48;;;;;;;8.82;2.25;;;;;;;19.59;60.65;100467.84;5108080;28;20050;-63
2023/09/30 11:13:15;;;;;;;8.43;2.80;;;;;;;19.54;61.28;100457.53;5108428;28;20020;-61
2023/09/30 11:15:40;;;;;;;5.88;1.08;;;;;;;19.46;60.38;100458.81;5108190;28;20115;-62
2023/09/30 11:18:16;;;;;;;3.22;1.40;;;;;;;19.01;60.93;100467.69;5089479;28;20028;-62
2023/09/30 11:20:44;;;;;;;2.88;1.45;;;;;;;18.65;61.48;100463.94;5108171;28;20031;-61
2023/09/30 11:23:10;;;;;;;2.30;0.85;;;;;;;18.21;60.44;100476.19;5107891;28;20024;-61
2023/09/30 11:25:37;;;;;;;5.28;1.13;;;;;;;17.89;60.83;100469.53;5089724;28;20035;-62